sensor_id;sensor_type;location;lat;lon;timestamp;P1;durP1;ratioP1;P2;durP2;ratioP2
23416;SDS011;11881;42.432;25.632;2022-07-25T00:02:17;18.83;;;10.88;;
23416;SDS011;11881;42.432;25.632;2022-07-25T00:04:42;14.52;;;11.40;;
23416;SDS011;11881;42.432;25.632;2022-07-25T00:07:08;12.43;;;10.98;;
23416;SDS011;11881;42.432;25.632;2022-07-25T00:09:33;15.25;;;11.70;;
23416;SDS011;11881;42.432;25.632;2022-07-25T00:11:59;17.67;;;11.60;;
23416;SDS011;11881;42.432;25.632;2022-07-25T00:14:24;16.88;;;11.73;;
23416;SDS011;11881;42.432;25.632;2022-07-25T00:16:50;15.32;;;11.73;;
23416;SDS011;11881;42.432;25.632;2022-07-25T00:19:16;15.02;;;11.52;;
23416;SDS011;11881;42.432;25.632;2022-07-25T00:21:41;15.18;;;10.13;;
23416;SDS011;11881;42.432;25.632;2022-07-25T00:24:07;10.23;;;8.70;;
23416;SDS011;11881;42.432;25.632;2022-07-25T00:26:32;12.02;;;9.05;;
23416;SDS011;11881;42.432;25.632;2022-07-25T00:28:58;15.68;;;8.70;;
23416;SDS011;11881;42.432;25.632;2022-07-25T00:31:23;15.85;;;8.27;;
23416;SDS011;11881;42.432;25.632;2022-07-25T00:33:48;11.48;;;8.02;;
23416;SDS011;11881;42.432;25.632;2022-07-25T00:36:14;11.80;;;8.55;;
23416;SDS011;11881;42.432;25.632;2022-07-25T00:38:39;12.18;;;8.73;;
23416;SDS011;11881;42.432;25.632;2022-07-25T00:41:05;9.98;;;7.93;;
23416;SDS011;11881;42.432;25.632;2022-07-25T00:43:30;14.80;;;8.30;;
23416;SDS011;11881;42.432;25.632;2022-07-25T00:45:56;12.18;;;8.00;;
23416;SDS011;11881;42.432;25.632;2022-07-25T00:48:22;14.45;;;7.63;;
23416;SDS011;11881;42.432;25.632;2022-07-25T00:50:48;14.45;;;7.90;;
23416;SDS011;11881;42.432;25.632;2022-07-25T00:53:14;12.88;;;7.82;;
23416;SDS011;11881;42.432;25.632;2022-07-25T00:55:40;10.75;;;7.95;;
23416;SDS011;11881;42.432;25.632;2022-07-25T00:58:05;14.25;;;8.10;;
23416;SDS011;11881;42.432;25.632;2022-07-25T01:00:31;14.05;;;8.52;;
23416;SDS011;11881;42.432;25.632;2022-07-25T01:02:57;13.10;;;8.35;;
23416;SDS011;11881;42.432;25.632;2022-07-25T01:05:22;13.48;;;8.40;;
23416;SDS011;11881;42.432;25.632;2022-07-25T01:07:47;10.30;;;8.18;;
23416;SDS011;11881;42.432;25.632;2022-07-25T01:10:13;10.63;;;8.00;;
23416;SDS011;11881;42.432;25.632;2022-07-25T01:12:43;13.38;;;8.23;;
23416;SDS011;11881;42.432;25.632;2022-07-25T01:15:12;11.10;;;8.57;;
23416;SDS011;11881;42.432;25.632;2022-07-25T01:17:39;9.80;;;8.18;;
23416;SDS011;11881;42.432;25.632;2022-07-25T01:20:05;13.57;;;8.50;;
23416;SDS011;11881;42.432;25.632;2022-07-25T01:22:37;10.45;;;7.78;;
23416;SDS011;11881;42.432;25.632;2022-07-25T01:25:02;10.80;;;8.15;;
23416;SDS011;11881;42.432;25.632;2022-07-25T01:27:28;10.63;;;8.55;;
23416;SDS011;11881;42.432;25.632;2022-07-25T01:29:53;10.05;;;7.32;;
23416;SDS011;11881;42.432;25.632;2022-07-25T01:32:19;10.45;;;7.22;;
23416;SDS011;11881;42.432;25.632;2022-07-25T01:34:44;10.27;;;8.10;;
23416;SDS011;11881;42.432;25.632;2022-07-25T01:37:09;11.43;;;7.65;;
23416;SDS011;11881;42.432;25.632;2022-07-25T01:39:35;9.30;;;7.88;;
23416;SDS011;11881;42.432;25.632;2022-07-25T01:42:00;8.77;;;7.95;;
23416;SDS011;11881;42.432;25.632;2022-07-25T01:44:26;15.07;;;7.97;;
23416;SDS011;11881;42.432;25.632;2022-07-25T01:46:51;14.38;;;8.10;;
23416;SDS011;11881;42.432;25.632;2022-07-25T01:49:17;11.70;;;7.68;;
23416;SDS011;11881;42.432;25.632;2022-07-25T01:51:42;10.60;;;8.10;;
23416;SDS011;11881;42.432;25.632;2022-07-25T01:54:07;10.55;;;8.00;;
23416;SDS011;11881;42.432;25.632;2022-07-25T01:56:33;14.45;;;8.82;;
23416;SDS011;11881;42.432;25.632;2022-07-25T01:58:58;10.82;;;8.38;;
23416;SDS011;11881;42.432;25.632;2022-07-25T02:01:24;13.70;;;8.00;;
23416;SDS011;11881;42.432;25.632;2022-07-25T02:03:49;12.15;;;7.82;;
23416;SDS011;11881;42.432;25.632;2022-07-25T02:06:14;15.15;;;8.55;;
23416;SDS011;11881;42.432;25.632;2022-07-25T02:08:42;12.25;;;9.35;;
23416;SDS011;11881;42.432;25.632;2022-07-25T02:11:08;12.13;;;8.77;;
23416;SDS011;11881;42.432;25.632;2022-07-25T02:13:33;20.10;;;8.80;;
23416;SDS011;11881;42.432;25.632;2022-07-25T02:15:58;9.85;;;8.85;;
23416;SDS011;11881;42.432;25.632;2022-07-25T02:18:24;10.68;;;9.07;;
23416;SDS011;11881;42.432;25.632;2022-07-25T02:20:49;12.48;;;9.00;;
23416;SDS011;11881;42.432;25.632;2022-07-25T02:23:15;13.85;;;8.75;;
23416;SDS011;11881;42.432;25.632;2022-07-25T02:25:40;9.93;;;8.65;;
23416;SDS011;11881;42.432;25.632;2022-07-25T02:28:06;11.55;;;8.68;;
23416;SDS011;11881;42.432;25.632;2022-07-25T02:30:31;10.10;;;9.10;;
23416;SDS011;11881;42.432;25.632;2022-07-25T02:32:57;11.95;;;9.63;;
23416;SDS011;11881;42.432;25.632;2022-07-25T02:35:22;12.98;;;9.18;;
23416;SDS011;11881;42.432;25.632;2022-07-25T02:37:48;15.65;;;9.98;;
23416;SDS011;11881;42.432;25.632;2022-07-25T02:40:13;12.63;;;9.20;;
23416;SDS011;11881;42.432;25.632;2022-07-25T02:42:39;10.43;;;9.48;;
23416;SDS011;11881;42.432;25.632;2022-07-25T02:45:04;14.55;;;10.10;;
23416;SDS011;11881;42.432;25.632;2022-07-25T02:47:30;11.27;;;10.23;;
23416;SDS011;11881;42.432;25.632;2022-07-25T02:49:56;16.60;;;9.43;;
23416;SDS011;11881;42.432;25.632;2022-07-25T02:52:21;11.50;;;9.53;;
23416;SDS011;11881;42.432;25.632;2022-07-25T02:54:47;13.40;;;9.70;;
23416;SDS011;11881;42.432;25.632;2022-07-25T02:57:14;11.57;;;10.48;;
23416;SDS011;11881;42.432;25.632;2022-07-25T02:59:40;12.37;;;9.93;;
23416;SDS011;11881;42.432;25.632;2022-07-25T03:02:05;13.47;;;9.80;;
23416;SDS011;11881;42.432;25.632;2022-07-25T03:04:31;12.50;;;10.47;;
23416;SDS011;11881;42.432;25.632;2022-07-25T03:06:57;11.43;;;10.07;;
23416;SDS011;11881;42.432;25.632;2022-07-25T03:09:22;13.87;;;9.80;;
23416;SDS011;11881;42.432;25.632;2022-07-25T03:11:48;15.73;;;9.60;;
23416;SDS011;11881;42.432;25.632;2022-07-25T03:14:15;13.27;;;10.00;;
23416;SDS011;11881;42.432;25.632;2022-07-25T03:16:41;13.53;;;10.27;;
23416;SDS011;11881;42.432;25.632;2022-07-25T03:19:06;15.23;;;9.33;;
23416;SDS011;11881;42.432;25.632;2022-07-25T03:21:34;12.87;;;9.03;;
23416;SDS011;11881;42.432;25.632;2022-07-25T03:24:01;13.37;;;9.70;;
23416;SDS011;11881;42.432;25.632;2022-07-25T03:26:26;12.10;;;9.23;;
23416;SDS011;11881;42.432;25.632;2022-07-25T03:28:52;14.73;;;9.77;;
23416;SDS011;11881;42.432;25.632;2022-07-25T03:31:17;13.57;;;10.20;;
23416;SDS011;11881;42.432;25.632;2022-07-25T03:33:43;13.70;;;10.33;;
23416;SDS011;11881;42.432;25.632;2022-07-25T03:36:08;13.17;;;9.63;;
23416;SDS011;11881;42.432;25.632;2022-07-25T03:38:34;13.70;;;9.97;;
23416;SDS011;11881;42.432;25.632;2022-07-25T03:41:00;17.47;;;10.50;;
23416;SDS011;11881;42.432;25.632;2022-07-25T03:43:25;12.90;;;9.67;;
23416;SDS011;11881;42.432;25.632;2022-07-25T03:45:51;16.70;;;10.70;;
23416;SDS011;11881;42.432;25.632;2022-07-25T03:48:16;18.20;;;10.50;;
23416;SDS011;11881;42.432;25.632;2022-07-25T03:50:41;15.80;;;10.40;;
23416;SDS011;11881;42.432;25.632;2022-07-25T03:53:07;17.33;;;10.63;;
23416;SDS011;11881;42.432;25.632;2022-07-25T03:55:32;20.27;;;10.63;;
23416;SDS011;11881;42.432;25.632;2022-07-25T03:57:58;13.67;;;10.80;;
23416;SDS011;11881;42.432;25.632;2022-07-25T04:00:23;13.77;;;9.57;;
23416;SDS011;11881;42.432;25.632;2022-07-25T04:02:48;18.70;;;10.77;;
23416;SDS011;11881;42.432;25.632;2022-07-25T04:05:14;20.20;;;10.43;;
23416;SDS011;11881;42.432;25.632;2022-07-25T04:07:39;14.33;;;10.73;;
23416;SDS011;11881;42.432;25.632;2022-07-25T04:10:05;18.13;;;10.57;;
23416;SDS011;11881;42.432;25.632;2022-07-25T04:12:32;21.57;;;11.10;;
23416;SDS011;11881;42.432;25.632;2022-07-25T04:14:57;17.33;;;11.30;;
23416;SDS011;11881;42.432;25.632;2022-07-25T04:17:23;20.60;;;10.80;;
23416;SDS011;11881;42.432;25.632;2022-07-25T04:19:48;18.50;;;10.90;;
23416;SDS011;11881;42.432;25.632;2022-07-25T04:22:14;17.03;;;11.03;;
23416;SDS011;11881;42.432;25.632;2022-07-25T04:24:39;17.60;;;11.30;;
23416;SDS011;11881;42.432;25.632;2022-07-25T04:27:05;18.90;;;11.90;;
23416;SDS011;11881;42.432;25.632;2022-07-25T04:29:30;26.70;;;13.20;;
23416;SDS011;11881;42.432;25.632;2022-07-25T04:31:56;30.40;;;13.40;;
23416;SDS011;11881;42.432;25.632;2022-07-25T04:34:22;20.53;;;12.10;;
23416;SDS011;11881;42.432;25.632;2022-07-25T04:36:47;19.77;;;11.47;;
23416;SDS011;11881;42.432;25.632;2022-07-25T04:39:13;20.20;;;12.13;;
23416;SDS011;11881;42.432;25.632;2022-07-25T04:41:38;16.73;;;11.40;;
23416;SDS011;11881;42.432;25.632;2022-07-25T04:44:03;17.43;;;11.27;;
23416;SDS011;11881;42.432;25.632;2022-07-25T04:46:31;16.70;;;11.20;;
23416;SDS011;11881;42.432;25.632;2022-07-25T04:48:56;15.37;;;11.37;;
23416;SDS011;11881;42.432;25.632;2022-07-25T04:51:22;22.10;;;11.73;;
23416;SDS011;11881;42.432;25.632;2022-07-25T04:53:47;17.50;;;11.17;;
23416;SDS011;11881;42.432;25.632;2022-07-25T04:56:13;17.17;;;10.95;;
23416;SDS011;11881;42.432;25.632;2022-07-25T04:58:39;19.23;;;10.63;;
23416;SDS011;11881;42.432;25.632;2022-07-25T05:01:05;17.20;;;10.73;;
23416;SDS011;11881;42.432;25.632;2022-07-25T05:03:31;17.70;;;11.23;;
23416;SDS011;11881;42.432;25.632;2022-07-25T05:05:56;17.17;;;10.35;;
23416;SDS011;11881;42.432;25.632;2022-07-25T05:08:22;12.25;;;10.50;;
23416;SDS011;11881;42.432;25.632;2022-07-25T05:10:47;14.83;;;10.63;;
23416;SDS011;11881;42.432;25.632;2022-07-25T05:13:13;14.47;;;10.57;;
23416;SDS011;11881;42.432;25.632;2022-07-25T05:15:38;13.68;;;11.00;;
23416;SDS011;11881;42.432;25.632;2022-07-25T05:18:04;11.40;;;10.20;;
23416;SDS011;11881;42.432;25.632;2022-07-25T05:20:29;16.63;;;10.73;;
23416;SDS011;11881;42.432;25.632;2022-07-25T05:22:55;15.65;;;10.15;;
23416;SDS011;11881;42.432;25.632;2022-07-25T05:25:21;12.48;;;9.70;;
23416;SDS011;11881;42.432;25.632;2022-07-25T05:27:46;16.83;;;10.15;;
23416;SDS011;11881;42.432;25.632;2022-07-25T05:30:12;16.80;;;10.82;;
23416;SDS011;11881;42.432;25.632;2022-07-25T05:32:39;30.63;;;12.67;;
23416;SDS011;11881;42.432;25.632;2022-07-25T05:35:05;21.03;;;12.27;;
23416;SDS011;11881;42.432;25.632;2022-07-25T05:37:32;24.42;;;12.65;;
23416;SDS011;11881;42.432;25.632;2022-07-25T05:39:58;24.95;;;11.68;;
23416;SDS011;11881;42.432;25.632;2022-07-25T05:42:24;21.25;;;11.93;;
23416;SDS011;11881;42.432;25.632;2022-07-25T05:44:49;17.38;;;11.50;;
23416;SDS011;11881;42.432;25.632;2022-07-25T05:47:15;22.65;;;11.20;;
23416;SDS011;11881;42.432;25.632;2022-07-25T05:49:40;19.83;;;10.65;;
23416;SDS011;11881;42.432;25.632;2022-07-25T05:52:06;15.70;;;10.80;;
23416;SDS011;11881;42.432;25.632;2022-07-25T05:54:31;18.50;;;11.10;;
23416;SDS011;11881;42.432;25.632;2022-07-25T05:56:58;23.55;;;11.50;;
23416;SDS011;11881;42.432;25.632;2022-07-25T05:59:25;19.55;;;11.23;;
23416;SDS011;11881;42.432;25.632;2022-07-25T06:01:50;20.60;;;11.50;;
23416;SDS011;11881;42.432;25.632;2022-07-25T06:04:16;15.27;;;11.23;;
23416;SDS011;11881;42.432;25.632;2022-07-25T06:06:41;17.42;;;10.85;;
23416;SDS011;11881;42.432;25.632;2022-07-25T06:09:06;13.30;;;10.13;;
23416;SDS011;11881;42.432;25.632;2022-07-25T06:11:32;16.33;;;10.55;;
23416;SDS011;11881;42.432;25.632;2022-07-25T06:13:58;20.92;;;11.98;;
23416;SDS011;11881;42.432;25.632;2022-07-25T06:16:23;19.42;;;11.63;;
23416;SDS011;11881;42.432;25.632;2022-07-25T06:18:49;17.88;;;11.30;;
23416;SDS011;11881;42.432;25.632;2022-07-25T06:21:14;16.08;;;11.30;;
23416;SDS011;11881;42.432;25.632;2022-07-25T06:23:41;14.95;;;11.50;;
23416;SDS011;11881;42.432;25.632;2022-07-25T06:26:09;18.10;;;11.23;;
23416;SDS011;11881;42.432;25.632;2022-07-25T06:28:35;22.77;;;11.10;;
23416;SDS011;11881;42.432;25.632;2022-07-25T06:31:02;12.88;;;10.60;;
23416;SDS011;11881;42.432;25.632;2022-07-25T06:33:27;18.35;;;10.27;;
23416;SDS011;11881;42.432;25.632;2022-07-25T06:35:53;17.30;;;10.38;;
23416;SDS011;11881;42.432;25.632;2022-07-25T06:38:18;20.65;;;10.18;;
23416;SDS011;11881;42.432;25.632;2022-07-25T06:40:44;12.98;;;10.10;;
23416;SDS011;11881;42.432;25.632;2022-07-25T06:43:09;19.33;;;10.13;;
23416;SDS011;11881;42.432;25.632;2022-07-25T06:45:35;15.15;;;9.98;;
23416;SDS011;11881;42.432;25.632;2022-07-25T06:48:00;12.68;;;9.65;;
23416;SDS011;11881;42.432;25.632;2022-07-25T06:50:25;15.38;;;10.10;;
23416;SDS011;11881;42.432;25.632;2022-07-25T06:52:51;13.82;;;10.10;;
23416;SDS011;11881;42.432;25.632;2022-07-25T06:55:18;16.27;;;9.95;;
23416;SDS011;11881;42.432;25.632;2022-07-25T06:57:43;17.70;;;10.55;;
23416;SDS011;11881;42.432;25.632;2022-07-25T07:00:11;12.50;;;9.63;;
23416;SDS011;11881;42.432;25.632;2022-07-25T07:02:47;11.30;;;9.38;;
23416;SDS011;11881;42.432;25.632;2022-07-25T07:05:16;15.13;;;9.45;;
23416;SDS011;11881;42.432;25.632;2022-07-25T07:07:41;13.00;;;8.95;;
23416;SDS011;11881;42.432;25.632;2022-07-25T07:10:07;12.23;;;9.90;;
23416;SDS011;11881;42.432;25.632;2022-07-25T07:12:33;17.10;;;8.82;;
23416;SDS011;11881;42.432;25.632;2022-07-25T07:14:58;11.32;;;9.20;;
23416;SDS011;11881;42.432;25.632;2022-07-25T07:17:24;12.73;;;8.95;;
23416;SDS011;11881;42.432;25.632;2022-07-25T07:19:49;12.20;;;8.38;;
23416;SDS011;11881;42.432;25.632;2022-07-25T07:22:14;9.52;;;8.18;;
23416;SDS011;11881;42.432;25.632;2022-07-25T07:24:40;16.35;;;8.48;;
23416;SDS011;11881;42.432;25.632;2022-07-25T07:27:05;16.15;;;8.32;;
23416;SDS011;11881;42.432;25.632;2022-07-25T07:29:31;13.77;;;8.68;;
23416;SDS011;11881;42.432;25.632;2022-07-25T07:31:56;15.88;;;8.23;;
23416;SDS011;11881;42.432;25.632;2022-07-25T07:34:22;10.05;;;7.63;;
23416;SDS011;11881;42.432;25.632;2022-07-25T07:36:47;14.52;;;8.50;;
23416;SDS011;11881;42.432;25.632;2022-07-25T07:39:12;19.73;;;8.45;;
23416;SDS011;11881;42.432;25.632;2022-07-25T07:41:39;12.68;;;8.40;;
23416;SDS011;11881;42.432;25.632;2022-07-25T07:44:05;13.10;;;8.93;;
23416;SDS011;11881;42.432;25.632;2022-07-25T07:46:31;16.20;;;9.25;;
23416;SDS011;11881;42.432;25.632;2022-07-25T07:48:56;13.57;;;8.82;;
23416;SDS011;11881;42.432;25.632;2022-07-25T07:51:22;18.50;;;9.13;;
23416;SDS011;11881;42.432;25.632;2022-07-25T07:53:47;11.85;;;8.70;;
23416;SDS011;11881;42.432;25.632;2022-07-25T07:56:31;21.85;;;9.13;;
23416;SDS011;11881;42.432;25.632;2022-07-25T07:58:57;9.82;;;8.57;;
23416;SDS011;11881;42.432;25.632;2022-07-25T08:01:22;10.07;;;8.40;;
23416;SDS011;11881;42.432;25.632;2022-07-25T08:03:49;16.98;;;9.35;;
23416;SDS011;11881;42.432;25.632;2022-07-25T08:06:14;11.63;;;9.20;;
23416;SDS011;11881;42.432;25.632;2022-07-25T08:08:39;31.00;;;10.23;;
23416;SDS011;11881;42.432;25.632;2022-07-25T08:11:05;30.13;;;9.52;;
23416;SDS011;11881;42.432;25.632;2022-07-25T08:13:31;15.02;;;8.68;;
23416;SDS011;11881;42.432;25.632;2022-07-25T08:16:00;44.25;;;10.05;;
23416;SDS011;11881;42.432;25.632;2022-07-25T08:18:27;15.75;;;9.48;;
23416;SDS011;11881;42.432;25.632;2022-07-25T08:20:53;11.82;;;8.88;;
23416;SDS011;11881;42.432;25.632;2022-07-25T08:23:20;10.68;;;9.10;;
23416;SDS011;11881;42.432;25.632;2022-07-25T08:25:46;17.60;;;9.07;;
23416;SDS011;11881;42.432;25.632;2022-07-25T08:28:12;13.88;;;8.77;;
23416;SDS011;11881;42.432;25.632;2022-07-25T08:30:39;14.18;;;9.38;;
23416;SDS011;11881;42.432;25.632;2022-07-25T08:33:06;14.18;;;8.70;;
23416;SDS011;11881;42.432;25.632;2022-07-25T08:35:37;12.88;;;8.80;;
23416;SDS011;11881;42.432;25.632;2022-07-25T08:38:05;14.90;;;9.27;;
23416;SDS011;11881;42.432;25.632;2022-07-25T08:40:31;20.40;;;9.52;;
23416;SDS011;11881;42.432;25.632;2022-07-25T08:42:58;14.95;;;8.80;;
23416;SDS011;11881;42.432;25.632;2022-07-25T08:45:23;18.88;;;8.93;;
23416;SDS011;11881;42.432;25.632;2022-07-25T08:47:51;14.02;;;8.60;;
23416;SDS011;11881;42.432;25.632;2022-07-25T08:50:19;24.33;;;8.52;;
23416;SDS011;11881;42.432;25.632;2022-07-25T08:52:47;19.17;;;8.45;;
23416;SDS011;11881;42.432;25.632;2022-07-25T08:55:18;13.93;;;8.77;;
23416;SDS011;11881;42.432;25.632;2022-07-25T08:57:49;29.10;;;9.48;;
23416;SDS011;11881;42.432;25.632;2022-07-25T09:00:20;14.77;;;8.98;;
23416;SDS011;11881;42.432;25.632;2022-07-25T09:02:51;14.73;;;9.05;;
23416;SDS011;11881;42.432;25.632;2022-07-25T09:05:23;18.75;;;8.68;;
23416;SDS011;11881;42.432;25.632;2022-07-25T09:07:49;17.77;;;9.48;;
23416;SDS011;11881;42.432;25.632;2022-07-25T09:13:17;19.58;;;9.10;;
23416;SDS011;11881;42.432;25.632;2022-07-25T09:18:16;14.30;;;8.35;;
23416;SDS011;11881;42.432;25.632;2022-07-25T09:23:09;12.43;;;8.68;;
23416;SDS011;11881;42.432;25.632;2022-07-25T09:25:35;13.65;;;9.15;;
23416;SDS011;11881;42.432;25.632;2022-07-25T09:28:14;10.80;;;9.73;;
23416;SDS011;11881;42.432;25.632;2022-07-25T09:30:54;15.20;;;10.05;;
23416;SDS011;11881;42.432;25.632;2022-07-25T09:33:22;18.25;;;10.25;;
23416;SDS011;11881;42.432;25.632;2022-07-25T09:35:48;13.98;;;9.70;;
23416;SDS011;11881;42.432;25.632;2022-07-25T09:38:14;12.23;;;9.27;;
23416;SDS011;11881;42.432;25.632;2022-07-25T09:40:51;13.98;;;9.52;;
23416;SDS011;11881;42.432;25.632;2022-07-25T09:43:20;12.23;;;9.40;;
23416;SDS011;11881;42.432;25.632;2022-07-25T09:45:49;12.43;;;8.65;;
23416;SDS011;11881;42.432;25.632;2022-07-25T09:48:17;12.23;;;8.93;;
23416;SDS011;11881;42.432;25.632;2022-07-25T09:50:44;14.38;;;7.88;;
23416;SDS011;11881;42.432;25.632;2022-07-25T09:53:10;11.80;;;8.30;;
23416;SDS011;11881;42.432;25.632;2022-07-25T09:55:36;14.88;;;8.45;;
23416;SDS011;11881;42.432;25.632;2022-07-25T09:58:01;8.48;;;7.68;;
23416;SDS011;11881;42.432;25.632;2022-07-25T10:00:27;10.20;;;8.05;;
23416;SDS011;11881;42.432;25.632;2022-07-25T10:08:41;14.15;;;8.10;;
23416;SDS011;11881;42.432;25.632;2022-07-25T10:11:17;12.95;;;8.48;;
23416;SDS011;11881;42.432;25.632;2022-07-25T10:13:44;17.30;;;8.55;;
23416;SDS011;11881;42.432;25.632;2022-07-25T10:16:43;10.00;;;7.88;;
23416;SDS011;11881;42.432;25.632;2022-07-25T10:19:09;9.27;;;7.35;;
23416;SDS011;11881;42.432;25.632;2022-07-25T10:21:34;17.77;;;7.63;;
23416;SDS011;11881;42.432;25.632;2022-07-25T10:26:27;8.85;;;7.88;;
23416;SDS011;11881;42.432;25.632;2022-07-25T10:28:53;11.25;;;7.57;;
23416;SDS011;11881;42.432;25.632;2022-07-25T10:31:23;10.57;;;6.95;;
23416;SDS011;11881;42.432;25.632;2022-07-25T10:33:56;11.40;;;7.30;;
23416;SDS011;11881;42.432;25.632;2022-07-25T10:36:24;15.57;;;7.55;;
23416;SDS011;11881;42.432;25.632;2022-07-25T10:38:58;7.95;;;7.15;;
23416;SDS011;11881;42.432;25.632;2022-07-25T10:41:25;8.63;;;6.82;;
23416;SDS011;11881;42.432;25.632;2022-07-25T10:43:55;9.10;;;7.95;;
23416;SDS011;11881;42.432;25.632;2022-07-25T10:46:25;8.15;;;7.45;;
23416;SDS011;11881;42.432;25.632;2022-07-25T10:49:02;7.70;;;7.00;;
23416;SDS011;11881;42.432;25.632;2022-07-25T10:51:30;9.90;;;7.57;;
23416;SDS011;11881;42.432;25.632;2022-07-25T10:53:58;7.55;;;6.85;;
23416;SDS011;11881;42.432;25.632;2022-07-25T10:56:26;11.98;;;6.75;;
23416;SDS011;11881;42.432;25.632;2022-07-25T10:58:59;11.15;;;6.68;;
23416;SDS011;11881;42.432;25.632;2022-07-25T11:03:56;7.18;;;6.47;;
23416;SDS011;11881;42.432;25.632;2022-07-25T11:09:24;12.10;;;6.60;;
23416;SDS011;11881;42.432;25.632;2022-07-25T11:11:51;14.00;;;6.53;;
23416;SDS011;11881;42.432;25.632;2022-07-25T11:14:20;7.07;;;6.10;;
23416;SDS011;11881;42.432;25.632;2022-07-25T11:16:46;6.68;;;5.63;;
23416;SDS011;11881;42.432;25.632;2022-07-25T11:22:00;7.90;;;5.22;;
23416;SDS011;11881;42.432;25.632;2022-07-25T11:27:05;5.90;;;5.28;;
23416;SDS011;11881;42.432;25.632;2022-07-25T11:29:31;7.63;;;5.15;;
23416;SDS011;11881;42.432;25.632;2022-07-25T11:31:59;10.55;;;5.38;;
23416;SDS011;11881;42.432;25.632;2022-07-25T11:34:31;9.93;;;4.88;;
23416;SDS011;11881;42.432;25.632;2022-07-25T11:37:00;10.55;;;5.68;;
23416;SDS011;11881;42.432;25.632;2022-07-25T11:39:29;6.30;;;4.90;;
23416;SDS011;11881;42.432;25.632;2022-07-25T11:42:03;9.80;;;5.15;;
23416;SDS011;11881;42.432;25.632;2022-07-25T11:44:38;14.52;;;5.13;;
23416;SDS011;11881;42.432;25.632;2022-07-25T11:47:05;9.30;;;4.85;;
23416;SDS011;11881;42.432;25.632;2022-07-25T11:49:51;5.78;;;4.82;;
23416;SDS011;11881;42.432;25.632;2022-07-25T11:54:50;6.55;;;4.60;;
23416;SDS011;11881;42.432;25.632;2022-07-25T11:57:20;7.15;;;5.00;;
23416;SDS011;11881;42.432;25.632;2022-07-25T11:59:46;9.98;;;4.85;;
23416;SDS011;11881;42.432;25.632;2022-07-25T12:02:25;7.55;;;4.43;;
23416;SDS011;11881;42.432;25.632;2022-07-25T12:04:59;14.73;;;5.15;;
23416;SDS011;11881;42.432;25.632;2022-07-25T12:07:42;8.60;;;5.28;;
23416;SDS011;11881;42.432;25.632;2022-07-25T12:10:10;9.48;;;5.05;;
23416;SDS011;11881;42.432;25.632;2022-07-25T12:12:43;7.85;;;5.40;;
23416;SDS011;11881;42.432;25.632;2022-07-25T12:15:09;5.50;;;4.93;;
23416;SDS011;11881;42.432;25.632;2022-07-25T12:17:36;8.77;;;5.70;;
23416;SDS011;11881;42.432;25.632;2022-07-25T12:20:02;6.93;;;5.20;;
23416;SDS011;11881;42.432;25.632;2022-07-25T12:22:29;7.43;;;4.63;;
23416;SDS011;11881;42.432;25.632;2022-07-25T12:24:54;7.32;;;4.35;;
23416;SDS011;11881;42.432;25.632;2022-07-25T12:27:20;7.03;;;4.85;;
23416;SDS011;11881;42.432;25.632;2022-07-25T12:29:45;5.38;;;4.75;;
23416;SDS011;11881;42.432;25.632;2022-07-25T12:32:11;4.90;;;4.47;;
23416;SDS011;11881;42.432;25.632;2022-07-25T12:34:36;8.82;;;4.75;;
23416;SDS011;11881;42.432;25.632;2022-07-25T12:37:02;7.05;;;4.40;;
23416;SDS011;11881;42.432;25.632;2022-07-25T12:39:27;6.28;;;5.00;;
23416;SDS011;11881;42.432;25.632;2022-07-25T12:41:52;6.13;;;4.57;;
23416;SDS011;11881;42.432;25.632;2022-07-25T12:44:18;5.50;;;4.82;;
23416;SDS011;11881;42.432;25.632;2022-07-25T12:46:43;5.18;;;4.78;;
23416;SDS011;11881;42.432;25.632;2022-07-25T12:49:09;7.35;;;4.78;;
23416;SDS011;11881;42.432;25.632;2022-07-25T12:51:34;8.18;;;5.07;;
23416;SDS011;11881;42.432;25.632;2022-07-25T12:54:00;5.55;;;4.82;;
23416;SDS011;11881;42.432;25.632;2022-07-25T12:56:25;9.13;;;4.70;;
23416;SDS011;11881;42.432;25.632;2022-07-25T12:58:51;5.70;;;4.72;;
23416;SDS011;11881;42.432;25.632;2022-07-25T13:01:16;7.70;;;4.60;;
23416;SDS011;11881;42.432;25.632;2022-07-25T13:03:42;5.38;;;4.93;;
23416;SDS011;11881;42.432;25.632;2022-07-25T13:06:07;5.43;;;4.93;;
23416;SDS011;11881;42.432;25.632;2022-07-25T13:08:32;5.72;;;5.28;;
23416;SDS011;11881;42.432;25.632;2022-07-25T13:11:01;7.50;;;5.13;;
23416;SDS011;11881;42.432;25.632;2022-07-25T13:13:27;15.82;;;5.68;;
23416;SDS011;11881;42.432;25.632;2022-07-25T13:15:53;6.07;;;4.80;;
23416;SDS011;11881;42.432;25.632;2022-07-25T13:18:18;9.98;;;5.05;;
23416;SDS011;11881;42.432;25.632;2022-07-25T13:20:44;10.75;;;5.72;;
23416;SDS011;11881;42.432;25.632;2022-07-25T13:23:09;6.57;;;5.18;;
23416;SDS011;11881;42.432;25.632;2022-07-25T13:25:35;13.90;;;6.15;;
23416;SDS011;11881;42.432;25.632;2022-07-25T13:28:01;11.23;;;5.80;;
23416;SDS011;11881;42.432;25.632;2022-07-25T13:30:27;8.48;;;6.15;;
23416;SDS011;11881;42.432;25.632;2022-07-25T13:32:53;6.07;;;5.47;;
23416;SDS011;11881;42.432;25.632;2022-07-25T13:35:18;11.95;;;5.78;;
23416;SDS011;11881;42.432;25.632;2022-07-25T13:37:44;7.43;;;5.78;;
23416;SDS011;11881;42.432;25.632;2022-07-25T13:40:09;12.40;;;6.25;;
23416;SDS011;11881;42.432;25.632;2022-07-25T13:42:35;11.23;;;6.00;;
23416;SDS011;11881;42.432;25.632;2022-07-25T13:45:00;7.10;;;5.30;;
23416;SDS011;11881;42.432;25.632;2022-07-25T13:47:26;9.05;;;4.95;;
23416;SDS011;11881;42.432;25.632;2022-07-25T13:49:51;6.50;;;5.85;;
23416;SDS011;11881;42.432;25.632;2022-07-25T13:52:17;7.97;;;5.68;;
23416;SDS011;11881;42.432;25.632;2022-07-25T13:54:42;6.75;;;5.97;;
23416;SDS011;11881;42.432;25.632;2022-07-25T13:57:08;56.03;;;6.80;;
23416;SDS011;11881;42.432;25.632;2022-07-25T13:59:34;25.25;;;5.40;;
23416;SDS011;11881;42.432;25.632;2022-07-25T14:01:59;18.33;;;6.13;;
23416;SDS011;11881;42.432;25.632;2022-07-25T14:04:25;10.85;;;5.90;;
23416;SDS011;11881;42.432;25.632;2022-07-25T14:06:51;10.93;;;6.00;;
23416;SDS011;11881;42.432;25.632;2022-07-25T14:09:17;14.57;;;6.10;;
23416;SDS011;11881;42.432;25.632;2022-07-25T14:11:46;14.10;;;6.20;;
23416;SDS011;11881;42.432;25.632;2022-07-25T14:14:12;10.73;;;5.50;;
23416;SDS011;11881;42.432;25.632;2022-07-25T14:16:37;7.63;;;5.28;;
23416;SDS011;11881;42.432;25.632;2022-07-25T14:19:03;11.77;;;5.13;;
23416;SDS011;11881;42.432;25.632;2022-07-25T14:21:28;7.85;;;5.03;;
23416;SDS011;11881;42.432;25.632;2022-07-25T14:23:54;8.77;;;5.40;;
23416;SDS011;11881;42.432;25.632;2022-07-25T14:26:20;9.75;;;5.55;;
23416;SDS011;11881;42.432;25.632;2022-07-25T14:28:45;8.95;;;4.75;;
23416;SDS011;11881;42.432;25.632;2022-07-25T14:31:11;12.02;;;5.20;;
23416;SDS011;11881;42.432;25.632;2022-07-25T14:33:36;7.15;;;5.30;;
23416;SDS011;11881;42.432;25.632;2022-07-25T14:36:04;9.27;;;5.10;;
23416;SDS011;11881;42.432;25.632;2022-07-25T14:38:33;7.75;;;5.53;;
23416;SDS011;11881;42.432;25.632;2022-07-25T14:40:59;9.43;;;6.03;;
23416;SDS011;11881;42.432;25.632;2022-07-25T14:43:24;13.52;;;5.35;;
23416;SDS011;11881;42.432;25.632;2022-07-25T14:45:50;7.28;;;5.45;;
23416;SDS011;11881;42.432;25.632;2022-07-25T14:48:15;9.25;;;5.45;;